sensor_id;sensor_type;location;lat;lon;timestamp;pressure;altitude;pressure_sealevel;temperature;humidity
31595;BME280;18200;48.726;8.892;2023-07-22T00:01:21;96720.56;;;27.53;35.21
31595;BME280;18200;48.726;8.892;2023-07-22T00:05:22;96719.84;;;27.76;34.36
31595;BME280;18200;48.726;8.892;2023-07-22T00:09:23;96722.78;;;27.73;34.70
31595;BME280;18200;48.726;8.892;2023-07-22T00:13:24;96731.03;;;27.49;34.85
31595;BME280;18200;48.726;8.892;2023-07-22T00:17:26;96717.94;;;27.58;34.88
31595;BME280;18200;48.726;8.892;2023-07-22T00:21:27;96725.66;;;27.45;35.29
31595;BME280;18200;48.726;8.892;2023-07-22T00:25:29;96727.34;;;26.92;36.21
31595;BME280;18200;48.726;8.892;2023-07-22T00:29:29;96726.03;;;27.20;35.58
31595;BME280;18200;48.726;8.892;2023-07-22T00:33:30;96719.88;;;27.67;34.99
31595;BME280;18200;48.726;8.892;2023-07-22T00:37:30;96720.84;;;27.13;35.21
31595;BME280;18200;48.726;8.892;2023-07-22T00:41:31;96726.78;;;26.79;36.50
31595;BME280;18200;48.726;8.892;2023-07-22T00:45:32;96721.56;;;26.81;35.63
31595;BME280;18200;48.726;8.892;2023-07-22T00:49:33;96721.72;;;27.28;35.85
31595;BME280;18200;48.726;8.892;2023-07-22T00:53:34;96726.38;;;27.13;36.15
31595;BME280;18200;48.726;8.892;2023-07-22T00:57:36;96725.66;;;27.45;35.25
31595;BME280;18200;48.726;8.892;2023-07-22T01:01:37;96720.66;;;27.35;35.72
31595;BME280;18200;48.726;8.892;2023-07-22T01:05:39;96711.50;;;27.61;34.92
31595;BME280;18200;48.726;8.892;2023-07-22T01:09:40;96710.09;;;27.66;34.74
31595;BME280;18200;48.726;8.892;2023-07-22T01:13:41;96710.09;;;27.90;34.18
31595;BME280;18200;48.726;8.892;2023-07-22T01:17:41;96712.56;;;27.13;35.73
31595;BME280;18200;48.726;8.892;2023-07-22T01:21:42;96709.91;;;27.70;34.49
31595;BME280;18200;48.726;8.892;2023-07-22T01:25:43;96696.16;;;27.84;34.96
31595;BME280;18200;48.726;8.892;2023-07-22T01:29:44;96700.25;;;27.89;34.90
31595;BME280;18200;48.726;8.892;2023-07-22T01:33:44;96699.03;;;27.90;33.68
31595;BME280;18200;48.726;8.892;2023-07-22T01:37:45;96687.66;;;27.97;34.48
31595;BME280;18200;48.726;8.892;2023-07-22T01:41:45;96693.56;;;27.81;34.54
31595;BME280;18200;48.726;8.892;2023-07-22T01:45:46;96694.84;;;27.47;35.00
31595;BME280;18200;48.726;8.892;2023-07-22T01:49:46;96694.72;;;27.32;35.15
31595;BME280;18200;48.726;8.892;2023-07-22T01:53:47;96700.59;;;27.25;35.00
31595;BME280;18200;48.726;8.892;2023-07-22T01:57:47;96690.28;;;27.35;34.77
31595;BME280;18200;48.726;8.892;2023-07-22T02:01:48;96685.00;;;27.55;35.19
31595;BME280;18200;48.726;8.892;2023-07-22T02:05:48;96685.13;;;27.19;35.45
31595;BME280;18200;48.726;8.892;2023-07-22T02:09:48;96696.41;;;26.97;36.55
31595;BME280;18200;48.726;8.892;2023-07-22T02:13:52;96695.53;;;26.82;36.51
31595;BME280;18200;48.726;8.892;2023-07-22T02:17:52;96702.59;;;27.25;35.74
31595;BME280;18200;48.726;8.892;2023-07-22T02:21:55;96698.25;;;26.91;35.55
31595;BME280;18200;48.726;8.892;2023-07-22T02:25:55;96713.00;;;26.79;36.11
31595;BME280;18200;48.726;8.892;2023-07-22T02:29:56;96712.03;;;27.00;35.64
31595;BME280;18200;48.726;8.892;2023-07-22T02:33:56;96715.44;;;26.59;35.81
31595;BME280;18200;48.726;8.892;2023-07-22T02:37:57;96709.41;;;25.70;37.06
31595;BME280;18200;48.726;8.892;2023-07-22T02:41:57;96706.28;;;26.35;37.00
31595;BME280;18200;48.726;8.892;2023-07-22T02:46:00;96703.53;;;26.26;36.68
31595;BME280;18200;48.726;8.892;2023-07-22T02:50:02;96706.88;;;26.39;36.44
31595;BME280;18200;48.726;8.892;2023-07-22T02:54:03;96710.41;;;26.30;36.25
31595;BME280;18200;48.726;8.892;2023-07-22T02:58:04;96710.22;;;25.97;36.81
31595;BME280;18200;48.726;8.892;2023-07-22T03:02:05;96710.22;;;25.97;36.86
31595;BME280;18200;48.726;8.892;2023-07-22T03:06:06;96707.81;;;26.36;36.62
31595;BME280;18200;48.726;8.892;2023-07-22T03:10:08;96697.25;;;26.25;36.05
31595;BME280;18200;48.726;8.892;2023-07-22T03:14:09;96702.25;;;25.81;36.99
31595;BME280;18200;48.726;8.892;2023-07-22T03:18:10;96691.69;;;25.80;37.36
31595;BME280;18200;48.726;8.892;2023-07-22T03:22:14;96705.59;;;25.67;37.27
31595;BME280;18200;48.726;8.892;2023-07-22T03:26:16;96703.78;;;26.00;36.89
31595;BME280;18200;48.726;8.892;2023-07-22T03:30:17;96708.06;;;25.92;37.44
31595;BME280;18200;48.726;8.892;2023-07-22T03:34:18;96701.00;;;25.73;37.54
31595;BME280;18200;48.726;8.892;2023-07-22T03:38:18;96710.97;;;25.80;37.30
31595;BME280;18200;48.726;8.892;2023-07-22T03:42:19;96703.50;;;25.89;36.96
31595;BME280;18200;48.726;8.892;2023-07-22T03:46:19;96714.44;;;25.53;37.16
31595;BME280;18200;48.726;8.892;2023-07-22T03:50:20;96705.31;;;25.83;37.13
31595;BME280;18200;48.726;8.892;2023-07-22T03:54:20;96694.00;;;25.90;36.22
31595;BME280;18200;48.726;8.892;2023-07-22T03:58:20;96702.31;;;26.17;36.49
31595;BME280;18200;48.726;8.892;2023-07-22T04:02:21;96701.63;;;25.77;36.93
31595;BME280;18200;48.726;8.892;2023-07-22T04:06:22;96707.50;;;26.06;36.15
31595;BME280;18200;48.726;8.892;2023-07-22T04:10:22;96701.00;;;25.73;36.93
31595;BME280;18200;48.726;8.892;2023-07-22T04:14:23;96705.09;;;25.51;37.18
31595;BME280;18200;48.726;8.892;2023-07-22T04:18:25;96697.16;;;25.22;38.27
31595;BME280;18200;48.726;8.892;2023-07-22T04:22:25;96703.59;;;25.28;37.66
31595;BME280;18200;48.726;8.892;2023-07-22T04:26:25;96691.31;;;25.42;37.51
31595;BME280;18200;48.726;8.892;2023-07-22T04:30:27;96692.44;;;25.71;37.29
31595;BME280;18200;48.726;8.892;2023-07-22T04:34:31;96688.22;;;26.06;36.60
31595;BME280;18200;48.726;8.892;2023-07-22T04:38:32;96690.38;;;26.11;36.46
31595;BME280;18200;48.726;8.892;2023-07-22T04:42:32;96707.50;;;26.06;36.89
31595;BME280;18200;48.726;8.892;2023-07-22T04:46:32;96694.66;;;26.31;36.27
31595;BME280;18200;48.726;8.892;2023-07-22T04:50:33;96705.06;;;26.45;36.12
31595;BME280;18200;48.726;8.892;2023-07-22T04:54:34;96700.88;;;26.67;35.39
31595;BME280;18200;48.726;8.892;2023-07-22T04:58:34;96700.88;;;26.67;35.14
31595;BME280;18200;48.726;8.892;2023-07-22T05:02:35;96712.09;;;26.64;35.77
31595;BME280;18200;48.726;8.892;2023-07-22T05:06:35;96708.22;;;26.79;35.83
31595;BME280;18200;48.726;8.892;2023-07-22T05:10:36;96704.25;;;27.40;35.08
31595;BME280;18200;48.726;8.892;2023-07-22T05:14:38;96716.06;;;27.64;34.18
31595;BME280;18200;48.726;8.892;2023-07-22T05:18:38;96715.63;;;27.90;34.19
31595;BME280;18200;48.726;8.892;2023-07-22T05:22:39;96712.38;;;27.91;33.34
31595;BME280;18200;48.726;8.892;2023-07-22T05:26:39;96707.44;;;27.72;34.21
31595;BME280;18200;48.726;8.892;2023-07-22T05:30:40;96710.00;;;27.75;33.80
31595;BME280;18200;48.726;8.892;2023-07-22T05:34:40;96712.63;;;27.79;35.28
31595;BME280;18200;48.726;8.892;2023-07-22T05:38:41;96710.09;;;27.90;35.32
31595;BME280;18200;48.726;8.892;2023-07-22T05:42:41;96705.22;;;28.08;34.24
31595;BME280;18200;48.726;8.892;2023-07-22T05:46:41;96717.53;;;28.60;34.38
31595;BME280;18200;48.726;8.892;2023-07-22T05:50:42;96722.06;;;29.16;33.35
31595;BME280;18200;48.726;8.892;2023-07-22T05:54:43;96730.41;;;29.51;32.16
31595;BME280;18200;48.726;8.892;2023-07-22T05:58:43;96734.13;;;30.17;31.29
31595;BME280;18200;48.726;8.892;2023-07-22T06:02:44;96731.09;;;30.35;31.06
31595;BME280;18200;48.726;8.892;2023-07-22T06:06:44;96721.81;;;30.38;32.32
31595;BME280;18200;48.726;8.892;2023-07-22T06:10:45;96728.25;;;31.01;31.44
31595;BME280;18200;48.726;8.892;2023-07-22T06:14:45;96734.34;;;31.05;31.39
31595;BME280;18200;48.726;8.892;2023-07-22T06:18:46;96733.59;;;30.79;32.26
31595;BME280;18200;48.726;8.892;2023-07-22T06:22:46;96729.47;;;30.95;31.93
31595;BME280;18200;48.726;8.892;2023-07-22T06:26:46;96723.78;;;31.09;31.83
31595;BME280;18200;48.726;8.892;2023-07-22T06:30:47;96733.47;;;31.45;31.67
31595;BME280;18200;48.726;8.892;2023-07-22T06:34:47;96731.41;;;31.46;30.96
31595;BME280;18200;48.726;8.892;2023-07-22T06:38:47;96739.38;;;31.64;30.73
31595;BME280;18200;48.726;8.892;2023-07-22T06:42:48;96736.25;;;31.87;30.30
31595;BME280;18200;48.726;8.892;2023-07-22T06:46:49;96734.25;;;31.93;30.01
31595;BME280;18200;48.726;8.892;2023-07-22T06:50:49;96740.50;;;32.20;29.60
31595;BME280;18200;48.726;8.892;2023-07-22T06:54:49;96742.66;;;31.62;29.57
31595;BME280;18200;48.726;8.892;2023-07-22T06:58:50;96743.72;;;31.70;29.59
31595;BME280;18200;48.726;8.892;2023-07-22T07:02:51;96742.22;;;32.92;28.16
31595;BME280;18200;48.726;8.892;2023-07-22T07:06:51;96743.28;;;31.41;29.45
31595;BME280;18200;48.726;8.892;2023-07-22T07:10:52;96737.75;;;33.28;28.05
31595;BME280;18200;48.726;8.892;2023-07-22T07:14:53;96738.94;;;32.88;28.44
31595;BME280;18200;48.726;8.892;2023-07-22T07:18:54;96745.81;;;33.37;27.83
31595;BME280;18200;48.726;8.892;2023-07-22T07:22:55;96748.13;;;32.36;28.65
31595;BME280;18200;48.726;8.892;2023-07-22T07:26:55;96756.91;;;32.93;27.90
31595;BME280;18200;48.726;8.892;2023-07-22T07:30:56;96749.38;;;33.32;27.58
31595;BME280;18200;48.726;8.892;2023-07-22T07:34:56;96749.38;;;33.10;27.81
31595;BME280;18200;48.726;8.892;2023-07-22T07:38:56;96756.25;;;30.98;30.57
31595;BME280;18200;48.726;8.892;2023-07-22T07:42:57;96749.03;;;32.80;27.79
31595;BME280;18200;48.726;8.892;2023-07-22T07:46:57;96742.78;;;32.27;27.59
31595;BME280;18200;48.726;8.892;2023-07-22T07:50:57;96739.41;;;32.11;27.31
31595;BME280;18200;48.726;8.892;2023-07-22T07:54:58;96746.94;;;31.94;26.99
31595;BME280;18200;48.726;8.892;2023-07-22T07:58:58;96750.50;;;32.00;27.26
31595;BME280;18200;48.726;8.892;2023-07-22T08:02:58;96769.03;;;29.89;28.09
31595;BME280;18200;48.726;8.892;2023-07-22T08:06:59;96766.59;;;30.97;26.57
31595;BME280;18200;48.726;8.892;2023-07-22T08:11:03;96765.03;;;31.84;24.92
31595;BME280;18200;48.726;8.892;2023-07-22T08:15:04;96759.84;;;31.04;26.06
31595;BME280;18200;48.726;8.892;2023-07-22T08:19:04;96756.47;;;33.11;23.50
31595;BME280;18200;48.726;8.892;2023-07-22T08:23:05;96758.94;;;31.44;25.05
31595;BME280;18200;48.726;8.892;2023-07-22T08:27:05;96745.59;;;32.38;24.80
31595;BME280;18200;48.726;8.892;2023-07-22T08:31:05;96749.84;;;33.03;23.62
31595;BME280;18200;48.726;8.892;2023-07-22T08:35:06;96767.59;;;30.74;25.88
31595;BME280;18200;48.726;8.892;2023-07-22T08:39:07;96749.06;;;32.97;23.65
31595;BME280;18200;48.726;8.892;2023-07-22T08:43:09;96763.28;;;30.73;26.06
31595;BME280;18200;48.726;8.892;2023-07-22T08:47:15;96755.88;;;32.74;24.49
31595;BME280;18200;48.726;8.892;2023-07-22T08:51:17;96748.63;;;33.71;23.03
31595;BME280;18200;48.726;8.892;2023-07-22T08:55:18;96767.34;;;33.48;23.30
31595;BME280;18200;48.726;8.892;2023-07-22T08:59:19;96760.28;;;32.33;24.83
31595;BME280;18200;48.726;8.892;2023-07-22T09:03:20;96756.50;;;33.67;23.21
31595;BME280;18200;48.726;8.892;2023-07-22T09:07:20;96765.59;;;33.61;22.95
31595;BME280;18200;48.726;8.892;2023-07-22T09:11:21;96765.00;;;31.42;25.54
31595;BME280;18200;48.726;8.892;2023-07-22T09:15:22;96757.75;;;33.71;23.75
31595;BME280;18200;48.726;8.892;2023-07-22T09:19:23;96758.75;;;33.29;24.00
31595;BME280;18200;48.726;8.892;2023-07-22T09:23:34;96753.94;;;35.05;22.01
31595;BME280;18200;48.726;8.892;2023-07-22T09:27:35;96762.09;;;35.03;21.94
31595;BME280;18200;48.726;8.892;2023-07-22T09:31:48;96749.38;;;33.32;23.31
31595;BME280;18200;48.726;8.892;2023-07-22T09:35:49;96753.63;;;32.25;24.30
31595;BME280;18200;48.726;8.892;2023-07-22T09:39:50;96750.53;;;32.65;23.99
31595;BME280;18200;48.726;8.892;2023-07-22T09:43:50;96745.31;;;33.44;23.57
31595;BME280;18200;48.726;8.892;2023-07-22T09:47:53;96743.88;;;34.91;21.77
31595;BME280;18200;48.726;8.892;2023-07-22T09:51:54;96743.31;;;33.61;23.01
31595;BME280;18200;48.726;8.892;2023-07-22T09:55:54;96745.84;;;33.71;22.83
31595;BME280;18200;48.726;8.892;2023-07-22T09:59:55;96747.56;;;34.01;22.60
31595;BME280;18200;48.726;8.892;2023-07-22T10:03:56;96736.75;;;33.53;24.00
31595;BME280;18200;48.726;8.892;2023-07-22T10:07:58;96733.41;;;34.62;22.58
31595;BME280;18200;48.726;8.892;2023-07-22T10:11:59;96733.88;;;36.20;21.79
31595;BME280;18200;48.726;8.892;2023-07-22T10:16:00;96745.19;;;34.33;21.79
31595;BME280;18200;48.726;8.892;2023-07-22T10:20:02;96729.81;;;35.97;20.17
31595;BME280;18200;48.726;8.892;2023-07-22T10:24:06;96732.22;;;32.42;23.78
31595;BME280;18200;48.726;8.892;2023-07-22T10:28:07;96735.66;;;33.90;21.27
31595;BME280;18200;48.726;8.892;2023-07-22T10:32:08;96717.44;;;37.23;19.35
31595;BME280;18200;48.726;8.892;2023-07-22T10:36:13;96737.50;;;33.54;23.55
31595;BME280;18200;48.726;8.892;2023-07-22T10:40:29;96736.16;;;32.83;24.64
31595;BME280;18200;48.726;8.892;2023-07-22T10:44:36;96735.97;;;34.49;22.82
31595;BME280;18200;48.726;8.892;2023-07-22T10:48:41;96733.69;;;34.99;22.28
31595;BME280;18200;48.726;8.892;2023-07-22T10:52:45;96723.06;;;34.52;22.50
31595;BME280;18200;48.726;8.892;2023-07-22T10:56:47;96717.16;;;33.92;23.19
31595;BME280;18200;48.726;8.892;2023-07-22T11:00:47;96718.09;;;35.45;21.78
31595;BME280;18200;48.726;8.892;2023-07-22T11:04:47;96711.38;;;35.83;21.28
31595;BME280;18200;48.726;8.892;2023-07-22T11:08:48;96718.44;;;34.95;20.95
31595;BME280;18200;48.726;8.892;2023-07-22T11:12:48;96717.69;;;33.80;22.05
31595;BME280;18200;48.726;8.892;2023-07-22T11:16:49;96696.41;;;34.91;21.78
31595;BME280;18200;48.726;8.892;2023-07-22T11:20:52;96693.47;;;36.58;20.19
31595;BME280;18200;48.726;8.892;2023-07-22T11:24:53;96689.97;;;35.07;21.48
31595;BME280;18200;48.726;8.892;2023-07-22T11:28:53;96682.38;;;35.02;20.88
31595;BME280;18200;48.726;8.892;2023-07-22T11:32:57;96688.97;;;34.64;21.63
31595;BME280;18200;48.726;8.892;2023-07-22T11:36:59;96687.06;;;33.69;21.80
31595;BME280;18200;48.726;8.892;2023-07-22T11:40:59;96666.41;;;35.81;20.58
31595;BME280;18200;48.726;8.892;2023-07-22T11:44:59;96649.53;;;36.29;19.38
31595;BME280;18200;48.726;8.892;2023-07-22T11:49:00;96649.53;;;36.11;20.05
31595;BME280;18200;48.726;8.892;2023-07-22T11:53:01;96641.13;;;35.68;20.09
31595;BME280;18200;48.726;8.892;2023-07-22T11:57:15;96635.69;;;36.93;19.12
31595;BME280;18200;48.726;8.892;2023-07-22T12:01:16;96647.41;;;35.74;20.27
31595;BME280;18200;48.726;8.892;2023-07-22T12:05:22;96629.22;;;36.79;19.46
31595;BME280;18200;48.726;8.892;2023-07-22T12:09:23;96641.50;;;36.95;18.82
31595;BME280;18200;48.726;8.892;2023-07-22T12:13:23;96641.16;;;35.38;20.18
31595;BME280;18200;48.726;8.892;2023-07-22T12:17:24;96647.69;;;34.46;21.04
31595;BME280;18200;48.726;8.892;2023-07-22T12:21:24;96633.50;;;34.44;20.44
31595;BME280;18200;48.726;8.892;2023-07-22T12:25:25;96633.50;;;35.15;20.20
31595;BME280;18200;48.726;8.892;2023-07-22T12:29:25;96633.16;;;35.77;19.28
31595;BME280;18200;48.726;8.892;2023-07-22T12:33:26;96637.13;;;35.34;20.38
31595;BME280;18200;48.726;8.892;2023-07-22T12:37:26;96628.44;;;35.67;20.10
31595;BME280;18200;48.726;8.892;2023-07-22T12:41:28;96631.78;;;35.36;20.39
31595;BME280;18200;48.726;8.892;2023-07-22T12:45:28;96620.13;;;36.04;19.97
31595;BME280;18200;48.726;8.892;2023-07-22T12:49:29;96618.53;;;38.06;18.19
31595;BME280;18200;48.726;8.892;2023-07-22T12:53:30;96619.63;;;38.84;17.98
31595;BME280;18200;48.726;8.892;2023-07-22T12:57:30;96618.50;;;37.28;18.68
31595;BME280;18200;48.726;8.892;2023-07-22T13:01:30;96614.53;;;35.07;20.16
31595;BME280;18200;48.726;8.892;2023-07-22T13:05:31;96620.88;;;38.16;17.86
31595;BME280;18200;48.726;8.892;2023-07-22T13:09:31;96611.66;;;37.94;18.12
31595;BME280;18200;48.726;8.892;2023-07-22T13:13:31;96602.25;;;37.66;17.67
31595;BME280;18200;48.726;8.892;2023-07-22T13:17:32;96610.09;;;37.28;18.41
31595;BME280;18200;48.726;8.892;2023-07-22T13:21:32;96597.50;;;39.29;17.03
31595;BME280;18200;48.726;8.892;2023-07-22T13:25:32;96610.13;;;37.93;17.93
31595;BME280;18200;48.726;8.892;2023-07-22T13:29:33;96619.91;;;35.78;19.61
31595;BME280;18200;48.726;8.892;2023-07-22T13:33:33;96604.94;;;37.58;18.61
31595;BME280;18200;48.726;8.892;2023-07-22T13:37:34;96621.34;;;36.96;19.37
31595;BME280;18200;48.726;8.892;2023-07-22T13:41:34;96608.66;;;35.83;20.80
31595;BME280;18200;48.726;8.892;2023-07-22T13:45:37;96611.63;;;37.55;19.48
31595;BME280;18200;48.726;8.892;2023-07-22T13:49:38;96603.66;;;37.59;18.63
31595;BME280;18200;48.726;8.892;2023-07-22T13:53:38;96608.31;;;36.11;19.27
31595;BME280;18200;48.726;8.892;2023-07-22T13:57:38;96604.09;;;36.42;18.79
31595;BME280;18200;48.726;8.892;2023-07-22T14:01:39;96601.28;;;37.50;18.43
31595;BME280;18200;48.726;8.892;2023-07-22T14:05:39;96598.47;;;35.38;20.13
31595;BME280;18200;48.726;8.892;2023-07-22T14:09:41;96596.44;;;37.90;17.91
31595;BME280;18200;48.726;8.892;2023-07-22T14:13:41;96597.66;;;37.10;18.16
31595;BME280;18200;48.726;8.892;2023-07-22T14:17:41;96595.25;;;37.46;18.42
31595;BME280;18200;48.726;8.892;2023-07-22T14:21:42;96588.09;;;35.81;19.06
31595;BME280;18200;48.726;8.892;2023-07-22T14:25:42;96572.06;;;36.56;18.58
31595;BME280;18200;48.726;8.892;2023-07-22T14:29:42;96584.59;;;37.00;17.96
31595;BME280;18200;48.726;8.892;2023-07-22T14:33:43;96593.59;;;36.48;18.69
31595;BME280;18200;48.726;8.892;2023-07-22T14:37:43;96596.63;;;35.46;19.71
31595;BME280;18200;48.726;8.892;2023-07-22T14:41:45;96586.84;;;35.09;19.70
31595;BME280;18200;48.726;8.892;2023-07-22T14:45:45;96583.28;;;36.00;19.06
31595;BME280;18200;48.726;8.892;2023-07-22T14:49:45;96587.66;;;35.04;20.58
31595;BME280;18200;48.726;8.892;2023-07-22T14:53:46;96582.28;;;35.79;19.53
31595;BME280;18200;48.726;8.892;2023-07-22T14:57:46;96582.50;;;35.81;20.15
31595;BME280;18200;48.726;8.892;2023-07-22T15:01:46;96584.47;;;35.86;19.57
31595;BME280;18200;48.726;8.892;2023-07-22T15:05:47;96582.53;;;36.18;19.34
31595;BME280;18200;48.726;8.892;2023-07-22T15:09:47;96580.66;;;36.26;19.79
31595;BME280;18200;48.726;8.892;2023-07-22T15:13:48;96572.44;;;36.79;19.21
31595;BME280;18200;48.726;8.892;2023-07-22T15:17:48;96579.94;;;37.47;19.28
31595;BME280;18200;48.726;8.892;2023-07-22T15:21:49;96573.28;;;36.61;19.71
31595;BME280;18200;48.726;8.892;2023-07-22T15:25:49;96582.41;;;35.44;19.86
31595;BME280;18200;48.726;8.892;2023-07-22T15:29:49;96567.78;;;34.08;20.76
31595;BME280;18200;48.726;8.892;2023-07-22T15:33:50;96575.28;;;36.28;19.33
31595;BME280;18200;48.726;8.892;2023-07-22T15:37:50;96568.44;;;35.68;20.00
31595;BME280;18200;48.726;8.892;2023-07-22T15:41:50;96575.66;;;36.70;18.66
31595;BME280;18200;48.726;8.892;2023-07-22T15:45:52;96570.75;;;37.20;19.06
31595;BME280;18200;48.726;8.892;2023-07-22T15:49:52;96563.31;;;37.75;18.64
31595;BME280;18200;48.726;8.892;2023-07-22T15:53:52;96581.16;;;36.25;19.47
31595;BME280;18200;48.726;8.892;2023-07-22T15:57:53;96566.09;;;35.72;19.96
31595;BME280;18200;48.726;8.892;2023-07-22T16:01:53;96578.44;;;36.19;20.27
31595;BME280;18200;48.726;8.892;2023-07-22T16:05:53;96580.06;;;35.72;19.24
31595;BME280;18200;48.726;8.892;2023-07-22T16:09:54;96575.66;;;34.80;20.80
31595;BME280;18200;48.726;8.892;2023-07-22T16:13:54;96579.91;;;34.57;20.78
31595;BME280;18200;48.726;8.892;2023-07-22T16:17:54;96578.06;;;36.79;19.51
31595;BME280;18200;48.726;8.892;2023-07-22T16:21:55;96579.94;;;35.83;19.89
31595;BME280;18200;48.726;8.892;2023-07-22T16:25:55;96583.91;;;34.26;21.76
31595;BME280;18200;48.726;8.892;2023-07-22T16:29:56;96574.44;;;35.96;19.79
31595;BME280;18200;48.726;8.892;2023-07-22T16:33:56;96573.56;;;38.33;17.67
31595;BME280;18200;48.726;8.892;2023-07-22T16:37:59;96578.38;;;37.98;17.75
31595;BME280;18200;48.726;8.892;2023-07-22T16:42:00;96572.16;;;37.79;17.98
31595;BME280;18200;48.726;8.892;2023-07-22T16:46:00;96583.94;;;36.94;18.33
31595;BME280;18200;48.726;8.892;2023-07-22T16:50:00;96579.78;;;35.94;19.42
31595;BME280;18200;48.726;8.892;2023-07-22T16:54:01;96574.94;;;36.32;18.62
31595;BME280;18200;48.726;8.892;2023-07-22T16:58:01;96566.75;;;37.94;17.49
31595;BME280;18200;48.726;8.892;2023-07-22T17:02:02;96563.53;;;38.58;17.21
31595;BME280;18200;48.726;8.892;2023-07-22T17:06:02;96561.91;;;37.95;17.94
31595;BME280;18200;48.726;8.892;2023-07-22T17:10:03;96563.31;;;35.24;20.04
31595;BME280;18200;48.726;8.892;2023-07-22T17:14:03;96562.31;;;36.25;19.49
31595;BME280;18200;48.726;8.892;2023-07-22T17:18:03;96566.00;;;37.55;17.95
31595;BME280;18200;48.726;8.892;2023-07-22T17:22:04;96560.81;;;38.32;17.64
31595;BME280;18200;48.726;8.892;2023-07-22T17:26:04;96561.69;;;38.81;17.20
31595;BME280;18200;48.726;8.892;2023-07-22T17:30:05;96557.41;;;38.13;17.51
31595;BME280;18200;48.726;8.892;2023-07-22T17:34:06;96564.53;;;36.96;18.70
31595;BME280;18200;48.726;8.892;2023-07-22T17:38:06;96559.06;;;38.42;17.41
31595;BME280;18200;48.726;8.892;2023-07-22T17:42:06;96551.13;;;39.72;16.85
31595;BME280;18200;48.726;8.892;2023-07-22T17:46:07;96548.91;;;38.39;17.51
31595;BME280;18200;48.726;8.892;2023-07-22T17:50:08;96547.97;;;37.11;18.36
31595;BME280;18200;48.726;8.892;2023-07-22T17:54:08;96548.84;;;38.31;17.50
31595;BME280;18200;48.726;8.892;2023-07-22T17:58:09;96547.72;;;36.32;18.53
31595;BME280;18200;48.726;8.892;2023-07-22T18:02:09;96549.16;;;37.68;18.25
31595;BME280;18200;48.726;8.892;2023-07-22T18:06:10;96553.88;;;38.46;17.63
31595;BME280;18200;48.726;8.892;2023-07-22T18:10:10;96550.16;;;38.17;17.08
31595;BME280;18200;48.726;8.892;2023-07-22T18:14:12;96546.78;;;36.11;19.50
31595;BME280;18200;48.726;8.892;2023-07-22T18:18:12;96546.66;;;36.54;19.20
31595;BME280;18200;48.726;8.892;2023-07-22T18:22:12;96552.34;;;38.45;17.93
31595;BME280;18200;48.726;8.892;2023-07-22T18:26:13;96561.16;;;37.68;18.31
31595;BME280;18200;48.726;8.892;2023-07-22T18:30:15;96551.94;;;38.41;17.46
31595;BME280;18200;48.726;8.892;2023-07-22T18:34:15;96553.06;;;38.79;17.14
31595;BME280;18200;48.726;8.892;2023-07-22T18:38:21;96558.22;;;38.34;17.82
31595;BME280;18200;48.726;8.892;2023-07-22T18:42:22;96549.59;;;37.19;18.68
31595;BME280;18200;48.726;8.892;2023-07-22T18:46:22;96550.47;;;36.83;18.85
31595;BME280;18200;48.726;8.892;2023-07-22T18:50:22;96557.06;;;37.69;18.60
31595;BME280;18200;48.726;8.892;2023-07-22T18:54:23;96552.41;;;37.19;18.46
31595;BME280;18200;48.726;8.892;2023-07-22T18:58:23;96550.13;;;36.41;19.39
31595;BME280;18200;48.726;8.892;2023-07-22T19:02:23;96550.91;;;37.58;17.97
31595;BME280;18200;48.726;8.892;2023-07-22T19:06:24;96555.09;;;36.99;19.38
31595;BME280;18200;48.726;8.892;2023-07-22T19:10:24;96555.53;;;37.16;19.73
31595;BME280;18200;48.726;8.892;2023-07-22T19:14:24;96554.66;;;36.95;20.07
31595;BME280;18200;48.726;8.892;2023-07-22T19:18:25;96559.44;;;36.81;20.43
31595;BME280;18200;48.726;8.892;2023-07-22T19:22:25;96565.59;;;36.61;20.59
31595;BME280;18200;48.726;8.892;2023-07-22T19:26:26;96569.00;;;36.73;20.39
31595;BME280;18200;48.726;8.892;2023-07-22T19:30:26;96573.28;;;36.42;21.03
31595;BME280;18200;48.726;8.892;2023-07-22T19:34:26;96574.59;;;36.22;21.73
31595;BME280;18200;48.726;8.892;2023-07-22T19:38:27;96572.22;;;35.70;22.19
31595;BME280;18200;48.726;8.892;2023-07-22T19:42:27;96574.25;;;35.46;23.44
31595;BME280;18200;48.726;8.892;2023-07-22T19:46:28;96587.91;;;35.31;23.23
31595;BME280;18200;48.726;8.892;2023-07-22T19:50:28;96589.06;;;35.41;23.07
31595;BME280;18200;48.726;8.892;2023-07-22T19:54:28;96584.69;;;35.45;23.39
31595;BME280;18200;48.726;8.892;2023-07-22T19:58:29;96582.16;;;35.47;23.46
31595;BME280;18200;48.726;8.892;2023-07-22T20:02:29;96585.16;;;35.49;23.53
31595;BME280;18200;48.726;8.892;2023-07-22T20:06:30;96587.00;;;34.58;24.42
31595;BME280;18200;48.726;8.892;2023-07-22T20:10:30;96580.41;;;34.61;24.32
31595;BME280;18200;48.726;8.892;2023-07-22T20:14:30;96577.38;;;34.18;24.32
31595;BME280;18200;48.726;8.892;2023-07-22T20:18:31;96592.19;;;33.91;25.03
31595;BME280;18200;48.726;8.892;2023-07-22T20:22:31;96588.50;;;33.66;24.97
31595;BME280;18200;48.726;8.892;2023-07-22T20:26:32;96589.63;;;33.93;24.08
31595;BME280;18200;48.726;8.892;2023-07-22T20:30:32;96576.78;;;34.25;23.87
31595;BME280;18200;48.726;8.892;2023-07-22T20:34:33;96598.34;;;33.73;25.68
31595;BME280;18200;48.726;8.892;2023-07-22T20:38:33;96596.06;;;33.77;24.85
31595;BME280;18200;48.726;8.892;2023-07-22T20:42:34;96592.47;;;33.87;25.01
31595;BME280;18200;48.726;8.892;2023-07-22T20:46:34;96605.44;;;33.74;25.01
31595;BME280;18200;48.726;8.892;2023-07-22T20:50:35;96601.97;;;33.45;25.73
31595;BME280;18200;48.726;8.892;2023-07-22T20:54:35;96591.91;;;33.04;26.31
31595;BME280;18200;48.726;8.892;2023-07-22T20:58:35;96595.97;;;33.08;26.32
31595;BME280;18200;48.726;8.892;2023-07-22T21:02:36;96597.00;;;33.05;26.08
31595;BME280;18200;48.726;8.892;2023-07-22T21:06:36;96600.50;;;32.95;26.67
31595;BME280;18200;48.726;8.892;2023-07-22T21:10:37;96601.53;;;32.86;26.16
31595;BME280;18200;48.726;8.892;2023-07-22T21:14:37;96592.44;;;32.85;26.58